LFSI 210400Z AUTO 33003KT 9999 FEW006 OVC054 00/M01 Q1034

ElémentsDécodage
LFSI Station météo située sur l'aérodrome de SAINT-DIZIER Robinson
210400Z émis le 21 du mois à 04h00 UTC
AUTO Bulletin édité par un automate
33003KT vent du 330°, 03 noeuds
9999 visibilité horizontale supérieure à 10 Km
FEW006 nuages rares (1/8 à 2/8) à 600 pieds
OVC054 couverture nuageuse totale (8/8) à 5400 pieds
00/M01 température 00°C, point de rosée -01°C
 soit une humidité relative de 93%
Q1034 la pression au niveau de la mer (QNH) est de 1034 hPa